sensor_id;sensor_type;location;lat;lon;timestamp;temperature;humidity
19248;DHT22;9758;48.640;8.148;2023-01-08T00:01:31;13.80;53.40
19248;DHT22;9758;48.640;8.148;2023-01-08T00:04:07;13.80;53.40
19248;DHT22;9758;48.640;8.148;2023-01-08T00:06:47;13.80;53.30
19248;DHT22;9758;48.640;8.148;2023-01-08T00:09:18;13.70;53.20
19248;DHT22;9758;48.640;8.148;2023-01-08T00:11:47;13.80;53.30
19248;DHT22;9758;48.640;8.148;2023-01-08T00:14:28;13.80;53.40
19248;DHT22;9758;48.640;8.148;2023-01-08T00:17:03;13.80;53.30
19248;DHT22;9758;48.640;8.148;2023-01-08T00:19:29;13.80;53.30
19248;DHT22;9758;48.640;8.148;2023-01-08T00:22:06;13.80;53.30
19248;DHT22;9758;48.640;8.148;2023-01-08T00:24:34;13.80;53.30
19248;DHT22;9758;48.640;8.148;2023-01-08T00:27:10;13.80;53.30
19248;DHT22;9758;48.640;8.148;2023-01-08T00:29:38;13.80;53.30
19248;DHT22;9758;48.640;8.148;2023-01-08T00:32:05;13.80;53.20
19248;DHT22;9758;48.640;8.148;2023-01-08T00:34:45;13.80;53.20
19248;DHT22;9758;48.640;8.148;2023-01-08T00:37:13;13.80;53.20
19248;DHT22;9758;48.640;8.148;2023-01-08T00:39:43;13.80;53.30
19248;DHT22;9758;48.640;8.148;2023-01-08T00:42:13;13.80;53.30
19248;DHT22;9758;48.640;8.148;2023-01-08T00:44:54;13.80;53.30
19248;DHT22;9758;48.640;8.148;2023-01-08T00:47:25;13.80;53.80
19248;DHT22;9758;48.640;8.148;2023-01-08T00:49:53;13.80;53.20
19248;DHT22;9758;48.640;8.148;2023-01-08T00:52:20;13.80;53.30
19248;DHT22;9758;48.640;8.148;2023-01-08T00:54:49;13.80;53.20
19248;DHT22;9758;48.640;8.148;2023-01-08T00:57:35;13.80;53.10
19248;DHT22;9758;48.640;8.148;2023-01-08T01:00:03;13.70;53.20
19248;DHT22;9758;48.640;8.148;2023-01-08T01:02:31;13.80;53.20
19248;DHT22;9758;48.640;8.148;2023-01-08T01:05:04;13.70;53.20
19248;DHT22;9758;48.640;8.148;2023-01-08T01:07:33;13.70;53.10
19248;DHT22;9758;48.640;8.148;2023-01-08T01:10:08;13.70;53.20
19248;DHT22;9758;48.640;8.148;2023-01-08T01:16:02;13.70;53.30
19248;DHT22;9758;48.640;8.148;2023-01-08T01:18:36;13.70;53.30
19248;DHT22;9758;48.640;8.148;2023-01-08T01:21:09;13.70;53.20
19248;DHT22;9758;48.640;8.148;2023-01-08T01:23:36;13.70;53.10
19248;DHT22;9758;48.640;8.148;2023-01-08T01:26:18;13.70;53.20
19248;DHT22;9758;48.640;8.148;2023-01-08T01:28:59;13.60;53.20
19248;DHT22;9758;48.640;8.148;2023-01-08T01:34:42;13.70;53.20
19248;DHT22;9758;48.640;8.148;2023-01-08T01:37:11;13.70;53.10
19248;DHT22;9758;48.640;8.148;2023-01-08T01:39:52;13.70;53.30
19248;DHT22;9758;48.640;8.148;2023-01-08T01:42:20;13.70;53.30
19248;DHT22;9758;48.640;8.148;2023-01-08T01:45:21;13.70;53.20
19248;DHT22;9758;48.640;8.148;2023-01-08T01:47:53;13.70;53.20
19248;DHT22;9758;48.640;8.148;2023-01-08T01:50:27;13.70;53.20
19248;DHT22;9758;48.640;8.148;2023-01-08T01:53:02;13.70;53.20
19248;DHT22;9758;48.640;8.148;2023-01-08T01:55:31;13.70;53.20
19248;DHT22;9758;48.640;8.148;2023-01-08T01:58:11;13.70;53.20
19248;DHT22;9758;48.640;8.148;2023-01-08T02:00:43;13.70;53.10
19248;DHT22;9758;48.640;8.148;2023-01-08T02:03:20;13.70;53.20
19248;DHT22;9758;48.640;8.148;2023-01-08T02:06:01;13.70;53.20
19248;DHT22;9758;48.640;8.148;2023-01-08T02:08:52;13.70;53.20
19248;DHT22;9758;48.640;8.148;2023-01-08T02:22:27;13.70;53.20
19248;DHT22;9758;48.640;8.148;2023-01-08T02:25:02;13.60;52.90
19248;DHT22;9758;48.640;8.148;2023-01-08T02:46:25;13.80;53.10
19248;DHT22;9758;48.640;8.148;2023-01-08T02:48:56;13.80;53.00
19248;DHT22;9758;48.640;8.148;2023-01-08T02:51:29;13.80;52.90
19248;DHT22;9758;48.640;8.148;2023-01-08T02:54:00;13.80;53.60
19248;DHT22;9758;48.640;8.148;2023-01-08T02:56:31;13.80;52.90
19248;DHT22;9758;48.640;8.148;2023-01-08T02:59:06;13.80;52.90
19248;DHT22;9758;48.640;8.148;2023-01-08T03:01:36;13.80;53.00
19248;DHT22;9758;48.640;8.148;2023-01-08T03:04:06;13.80;53.00
19248;DHT22;9758;48.640;8.148;2023-01-08T03:06:36;13.90;52.80
19248;DHT22;9758;48.640;8.148;2023-01-08T03:09:04;13.90;52.90
19248;DHT22;9758;48.640;8.148;2023-01-08T03:11:52;13.90;53.00
19248;DHT22;9758;48.640;8.148;2023-01-08T03:14:23;13.90;52.90
19248;DHT22;9758;48.640;8.148;2023-01-08T03:16:55;13.90;52.90
19248;DHT22;9758;48.640;8.148;2023-01-08T03:19:27;14.00;53.00
19248;DHT22;9758;48.640;8.148;2023-01-08T03:22:11;14.00;52.90
19248;DHT22;9758;48.640;8.148;2023-01-08T03:24:41;13.90;52.70
19248;DHT22;9758;48.640;8.148;2023-01-08T03:27:18;13.90;52.90
19248;DHT22;9758;48.640;8.148;2023-01-08T03:29:59;14.00;52.70
19248;DHT22;9758;48.640;8.148;2023-01-08T03:35:58;14.00;52.90
19248;DHT22;9758;48.640;8.148;2023-01-08T03:38:29;14.00;52.40
19248;DHT22;9758;48.640;8.148;2023-01-08T03:41:06;13.90;52.70
19248;DHT22;9758;48.640;8.148;2023-01-08T03:43:36;14.00;52.70
19248;DHT22;9758;48.640;8.148;2023-01-08T03:46:06;14.00;52.70
19248;DHT22;9758;48.640;8.148;2023-01-08T03:48:35;14.00;52.60
19248;DHT22;9758;48.640;8.148;2023-01-08T03:51:09;14.00;52.70
19248;DHT22;9758;48.640;8.148;2023-01-08T03:53:37;14.00;52.60
19248;DHT22;9758;48.640;8.148;2023-01-08T03:56:12;14.00;52.50
19248;DHT22;9758;48.640;8.148;2023-01-08T03:58:38;14.00;52.60
19248;DHT22;9758;48.640;8.148;2023-01-08T04:01:05;13.90;52.80
19248;DHT22;9758;48.640;8.148;2023-01-08T04:03:32;13.90;52.90
19248;DHT22;9758;48.640;8.148;2023-01-08T04:05:59;13.80;52.90
19248;DHT22;9758;48.640;8.148;2023-01-08T04:08:27;13.80;53.00
19248;DHT22;9758;48.640;8.148;2023-01-08T04:10:54;13.70;53.10
19248;DHT22;9758;48.640;8.148;2023-01-08T04:13:22;13.70;53.10
19248;DHT22;9758;48.640;8.148;2023-01-08T04:15:49;13.60;53.20
19248;DHT22;9758;48.640;8.148;2023-01-08T04:18:17;13.50;53.30
19248;DHT22;9758;48.640;8.148;2023-01-08T04:20:45;13.50;53.30
19248;DHT22;9758;48.640;8.148;2023-01-08T04:23:20;13.40;53.40
19248;DHT22;9758;48.640;8.148;2023-01-08T04:25:48;13.40;53.50
19248;DHT22;9758;48.640;8.148;2023-01-08T04:28:15;13.30;53.50
19248;DHT22;9758;48.640;8.148;2023-01-08T04:30:56;13.30;53.50
19248;DHT22;9758;48.640;8.148;2023-01-08T04:33:23;13.30;53.50
19248;DHT22;9758;48.640;8.148;2023-01-08T04:35:51;13.30;53.70
19248;DHT22;9758;48.640;8.148;2023-01-08T04:38:17;13.30;53.70
19248;DHT22;9758;48.640;8.148;2023-01-08T04:40:45;13.30;53.80
19248;DHT22;9758;48.640;8.148;2023-01-08T04:43:28;13.20;53.80
19248;DHT22;9758;48.640;8.148;2023-01-08T04:46:02;13.20;53.90
19248;DHT22;9758;48.640;8.148;2023-01-08T04:48:29;13.10;53.90
19248;DHT22;9758;48.640;8.148;2023-01-08T04:50:57;13.10;53.90
19248;DHT22;9758;48.640;8.148;2023-01-08T04:53:24;13.00;54.10
19248;DHT22;9758;48.640;8.148;2023-01-08T04:55:52;12.90;54.10
19248;DHT22;9758;48.640;8.148;2023-01-08T04:58:19;12.90;54.30
19248;DHT22;9758;48.640;8.148;2023-01-08T05:00:50;12.80;54.20
19248;DHT22;9758;48.640;8.148;2023-01-08T05:03:16;12.80;54.50
19248;DHT22;9758;48.640;8.148;2023-01-08T05:05:44;12.80;54.50
19248;DHT22;9758;48.640;8.148;2023-01-08T05:08:25;12.80;54.60
19248;DHT22;9758;48.640;8.148;2023-01-08T05:10:53;12.70;54.60
19248;DHT22;9758;48.640;8.148;2023-01-08T05:13:33;12.60;54.60
19248;DHT22;9758;48.640;8.148;2023-01-08T05:16:06;12.60;54.80
19248;DHT22;9758;48.640;8.148;2023-01-08T05:18:33;12.60;54.80
19248;DHT22;9758;48.640;8.148;2023-01-08T05:21:14;12.50;55.00
19248;DHT22;9758;48.640;8.148;2023-01-08T05:23:44;12.50;54.90
19248;DHT22;9758;48.640;8.148;2023-01-08T05:26:25;12.50;55.10
19248;DHT22;9758;48.640;8.148;2023-01-08T05:28:53;12.50;55.00
19248;DHT22;9758;48.640;8.148;2023-01-08T05:31:51;12.40;54.90
19248;DHT22;9758;48.640;8.148;2023-01-08T05:34:31;12.40;55.20
19248;DHT22;9758;48.640;8.148;2023-01-08T05:37:34;12.40;55.60
19248;DHT22;9758;48.640;8.148;2023-01-08T05:40:15;12.30;56.10
19248;DHT22;9758;48.640;8.148;2023-01-08T05:42:58;12.30;55.60
19248;DHT22;9758;48.640;8.148;2023-01-08T05:45:39;12.30;55.30
19248;DHT22;9758;48.640;8.148;2023-01-08T05:58:07;12.30;55.50
19248;DHT22;9758;48.640;8.148;2023-01-08T06:00:48;12.30;55.70
19248;DHT22;9758;48.640;8.148;2023-01-08T06:03:35;12.30;55.40
19248;DHT22;9758;48.640;8.148;2023-01-08T06:06:16;12.30;55.80
19248;DHT22;9758;48.640;8.148;2023-01-08T06:08:50;12.30;55.80
19248;DHT22;9758;48.640;8.148;2023-01-08T06:11:18;12.30;55.60
19248;DHT22;9758;48.640;8.148;2023-01-08T06:13:47;12.30;55.60
19248;DHT22;9758;48.640;8.148;2023-01-08T06:16:15;12.30;55.80
19248;DHT22;9758;48.640;8.148;2023-01-08T06:18:46;12.30;55.90
19248;DHT22;9758;48.640;8.148;2023-01-08T06:21:14;12.30;55.80
19248;DHT22;9758;48.640;8.148;2023-01-08T06:23:55;12.30;55.70
19248;DHT22;9758;48.640;8.148;2023-01-08T06:26:36;12.30;55.70
19248;DHT22;9758;48.640;8.148;2023-01-08T06:29:05;12.40;56.20
19248;DHT22;9758;48.640;8.148;2023-01-08T06:31:46;12.30;55.80
19248;DHT22;9758;48.640;8.148;2023-01-08T06:34:28;12.30;56.10
19248;DHT22;9758;48.640;8.148;2023-01-08T06:37:09;12.30;55.80
19248;DHT22;9758;48.640;8.148;2023-01-08T06:39:50;12.30;56.00
19248;DHT22;9758;48.640;8.148;2023-01-08T06:42:22;12.40;55.80
19248;DHT22;9758;48.640;8.148;2023-01-08T07:14:59;12.30;56.10
19248;DHT22;9758;48.640;8.148;2023-01-08T07:17:39;12.30;56.00
19248;DHT22;9758;48.640;8.148;2023-01-08T07:20:15;12.30;56.00
19248;DHT22;9758;48.640;8.148;2023-01-08T07:22:42;12.30;56.60
19248;DHT22;9758;48.640;8.148;2023-01-08T07:25:09;12.30;56.30
19248;DHT22;9758;48.640;8.148;2023-01-08T07:27:50;12.30;56.10
19248;DHT22;9758;48.640;8.148;2023-01-08T07:36:53;12.30;56.70
19248;DHT22;9758;48.640;8.148;2023-01-08T07:39:29;12.30;56.40
19248;DHT22;9758;48.640;8.148;2023-01-08T07:42:10;12.30;56.60
19248;DHT22;9758;48.640;8.148;2023-01-08T07:44:52;12.30;56.40
19248;DHT22;9758;48.640;8.148;2023-01-08T07:47:33;12.30;56.30
19248;DHT22;9758;48.640;8.148;2023-01-08T07:50:00;12.30;56.40
19248;DHT22;9758;48.640;8.148;2023-01-08T07:55:58;12.30;56.30
19248;DHT22;9758;48.640;8.148;2023-01-08T07:58:25;12.30;56.40
19248;DHT22;9758;48.640;8.148;2023-01-08T08:00:52;12.30;56.30
19248;DHT22;9758;48.640;8.148;2023-01-08T08:03:19;12.30;56.30
19248;DHT22;9758;48.640;8.148;2023-01-08T08:05:47;12.30;56.30
19248;DHT22;9758;48.640;8.148;2023-01-08T08:08:14;12.20;56.20
19248;DHT22;9758;48.640;8.148;2023-01-08T08:10:42;12.30;56.60
19248;DHT22;9758;48.640;8.148;2023-01-08T08:13:10;12.30;56.30
19248;DHT22;9758;48.640;8.148;2023-01-08T08:15:38;12.30;56.30
19248;DHT22;9758;48.640;8.148;2023-01-08T08:18:05;12.30;56.40
19248;DHT22;9758;48.640;8.148;2023-01-08T08:20:33;12.30;56.40
19248;DHT22;9758;48.640;8.148;2023-01-08T08:23:33;12.30;56.30
19248;DHT22;9758;48.640;8.148;2023-01-08T08:26:14;12.30;56.40
19248;DHT22;9758;48.640;8.148;2023-01-08T08:41:40;12.20;56.70
19248;DHT22;9758;48.640;8.148;2023-01-08T08:44:21;12.20;56.70
19248;DHT22;9758;48.640;8.148;2023-01-08T08:47:01;12.20;56.60
19248;DHT22;9758;48.640;8.148;2023-01-08T08:49:45;12.20;56.60
19248;DHT22;9758;48.640;8.148;2023-01-08T08:52:28;12.20;56.80
19248;DHT22;9758;48.640;8.148;2023-01-08T08:55:30;12.20;56.80
19248;DHT22;9758;48.640;8.148;2023-01-08T08:58:06;12.20;56.60
19248;DHT22;9758;48.640;8.148;2023-01-08T09:00:42;12.20;56.60
19248;DHT22;9758;48.640;8.148;2023-01-08T09:03:25;12.20;56.70
19248;DHT22;9758;48.640;8.148;2023-01-08T09:06:30;12.20;56.60
19248;DHT22;9758;48.640;8.148;2023-01-08T09:09:34;12.20;56.70
19248;DHT22;9758;48.640;8.148;2023-01-08T09:12:15;12.20;57.00
19248;DHT22;9758;48.640;8.148;2023-01-08T09:40:23;12.30;56.70
19248;DHT22;9758;48.640;8.148;2023-01-08T09:42:54;12.30;56.60
19248;DHT22;9758;48.640;8.148;2023-01-08T09:45:25;12.30;56.60
19248;DHT22;9758;48.640;8.148;2023-01-08T09:47:58;12.30;56.60
19248;DHT22;9758;48.640;8.148;2023-01-08T09:50:40;12.30;56.80
19248;DHT22;9758;48.640;8.148;2023-01-08T09:53:12;12.30;56.60
19248;DHT22;9758;48.640;8.148;2023-01-08T09:59:01;12.30;56.60
19248;DHT22;9758;48.640;8.148;2023-01-08T10:01:30;12.30;56.70
19248;DHT22;9758;48.640;8.148;2023-01-08T10:04:04;12.30;57.00
19248;DHT22;9758;48.640;8.148;2023-01-08T10:06:52;12.40;56.70
19248;DHT22;9758;48.640;8.148;2023-01-08T10:09:33;12.40;56.70
19248;DHT22;9758;48.640;8.148;2023-01-08T10:12:26;12.40;56.90
19248;DHT22;9758;48.640;8.148;2023-01-08T10:15:28;12.40;56.90
19248;DHT22;9758;48.640;8.148;2023-01-08T10:17:59;12.50;56.70
19248;DHT22;9758;48.640;8.148;2023-01-08T10:20:28;12.50;57.00
19248;DHT22;9758;48.640;8.148;2023-01-08T10:22:55;12.50;56.90
19248;DHT22;9758;48.640;8.148;2023-01-08T10:25:24;12.40;56.70
19248;DHT22;9758;48.640;8.148;2023-01-08T10:27:52;12.50;56.80
19248;DHT22;9758;48.640;8.148;2023-01-08T10:30:21;12.50;56.90
19248;DHT22;9758;48.640;8.148;2023-01-08T10:32:54;12.50;56.80
19248;DHT22;9758;48.640;8.148;2023-01-08T10:35:27;12.50;56.80
19248;DHT22;9758;48.640;8.148;2023-01-08T10:37:58;12.60;56.80
19248;DHT22;9758;48.640;8.148;2023-01-08T10:40:27;12.60;56.70
19248;DHT22;9758;48.640;8.148;2023-01-08T10:43:03;12.70;56.70
19248;DHT22;9758;48.640;8.148;2023-01-08T10:45:32;12.70;56.70
19248;DHT22;9758;48.640;8.148;2023-01-08T10:48:15;12.80;56.70
19248;DHT22;9758;48.640;8.148;2023-01-08T10:50:43;12.80;56.60
19248;DHT22;9758;48.640;8.148;2023-01-08T10:53:22;12.80;56.60
19248;DHT22;9758;48.640;8.148;2023-01-08T10:55:56;12.90;56.60
19248;DHT22;9758;48.640;8.148;2023-01-08T10:58:23;12.90;56.60
19248;DHT22;9758;48.640;8.148;2023-01-08T11:00:50;12.90;56.40
19248;DHT22;9758;48.640;8.148;2023-01-08T11:03:27;12.90;56.40
19248;DHT22;9758;48.640;8.148;2023-01-08T11:05:54;12.90;56.30
19248;DHT22;9758;48.640;8.148;2023-01-08T11:08:21;12.90;56.30
19248;DHT22;9758;48.640;8.148;2023-01-08T11:10:54;12.90;56.40
19248;DHT22;9758;48.640;8.148;2023-01-08T11:13:22;12.90;56.40
19248;DHT22;9758;48.640;8.148;2023-01-08T11:16:01;12.90;56.50
19248;DHT22;9758;48.640;8.148;2023-01-08T11:18:29;12.90;56.60
19248;DHT22;9758;48.640;8.148;2023-01-08T11:21:07;12.90;56.50
19248;DHT22;9758;48.640;8.148;2023-01-08T11:23:35;12.90;56.60
19248;DHT22;9758;48.640;8.148;2023-01-08T11:26:07;12.90;56.40
19248;DHT22;9758;48.640;8.148;2023-01-08T11:28:46;13.00;56.50
19248;DHT22;9758;48.640;8.148;2023-01-08T11:31:20;13.00;56.60
19248;DHT22;9758;48.640;8.148;2023-01-08T11:33:55;13.00;56.60
19248;DHT22;9758;48.640;8.148;2023-01-08T11:36:26;13.10;56.50
19248;DHT22;9758;48.640;8.148;2023-01-08T11:38:53;13.10;56.50
19248;DHT22;9758;48.640;8.148;2023-01-08T11:41:35;13.10;56.40
19248;DHT22;9758;48.640;8.148;2023-01-08T11:44:16;13.20;56.40
19248;DHT22;9758;48.640;8.148;2023-01-08T11:47:05;13.10;56.20
19248;DHT22;9758;48.640;8.148;2023-01-08T11:52:42;13.20;56.40
19248;DHT22;9758;48.640;8.148;2023-01-08T11:55:20;13.10;56.20
19248;DHT22;9758;48.640;8.148;2023-01-08T11:58:01;13.10;56.20
19248;DHT22;9758;48.640;8.148;2023-01-08T12:00:44;13.10;56.30
19248;DHT22;9758;48.640;8.148;2023-01-08T12:03:23;13.10;56.30
19248;DHT22;9758;48.640;8.148;2023-01-08T12:05:58;13.10;56.30
19248;DHT22;9758;48.640;8.148;2023-01-08T12:08:36;13.20;56.30
19248;DHT22;9758;48.640;8.148;2023-01-08T12:11:10;13.20;56.20
19248;DHT22;9758;48.640;8.148;2023-01-08T12:13:52;13.20;56.20
19248;DHT22;9758;48.640;8.148;2023-01-08T12:16:38;13.30;56.20
19248;DHT22;9758;48.640;8.148;2023-01-08T12:19:19;13.30;56.10
19248;DHT22;9758;48.640;8.148;2023-01-08T12:22:02;13.30;56.10
19248;DHT22;9758;48.640;8.148;2023-01-08T12:24:56;13.30;56.60
19248;DHT22;9758;48.640;8.148;2023-01-08T12:27:33;13.40;56.00
19248;DHT22;9758;48.640;8.148;2023-01-08T12:30:10;13.40;55.90
19248;DHT22;9758;48.640;8.148;2023-01-08T12:32:46;13.40;55.90
19248;DHT22;9758;48.640;8.148;2023-01-08T12:35:17;13.40;55.80
19248;DHT22;9758;48.640;8.148;2023-01-08T12:37:50;13.40;55.90
19248;DHT22;9758;48.640;8.148;2023-01-08T12:40:23;13.40;55.90
19248;DHT22;9758;48.640;8.148;2023-01-08T12:42:51;13.40;55.90
19248;DHT22;9758;48.640;8.148;2023-01-08T12:45:23;13.40;56.00
19248;DHT22;9758;48.640;8.148;2023-01-08T12:47:54;13.40;56.00
19248;DHT22;9758;48.640;8.148;2023-01-08T12:50:34;13.40;56.00
19248;DHT22;9758;48.640;8.148;2023-01-08T12:53:08;13.40;56.00
19248;DHT22;9758;48.640;8.148;2023-01-08T12:55:45;13.40;56.00
19248;DHT22;9758;48.640;8.148;2023-01-08T12:58:21;13.40;56.00
19248;DHT22;9758;48.640;8.148;2023-01-08T13:00:55;13.40;55.90
19248;DHT22;9758;48.640;8.148;2023-01-08T13:03:27;13.40;55.90
19248;DHT22;9758;48.640;8.148;2023-01-08T13:06:08;13.30;55.90
19248;DHT22;9758;48.640;8.148;2023-01-08T13:08:38;13.40;56.00
19248;DHT22;9758;48.640;8.148;2023-01-08T13:11:07;13.30;56.00
19248;DHT22;9758;48.640;8.148;2023-01-08T13:13:36;13.30;56.00
19248;DHT22;9758;48.640;8.148;2023-01-08T13:16:08;13.30;56.00
19248;DHT22;9758;48.640;8.148;2023-01-08T13:18:50;13.30;56.00
19248;DHT22;9758;48.640;8.148;2023-01-08T13:21:27;13.30;56.00
19248;DHT22;9758;48.640;8.148;2023-01-08T13:24:25;13.30;56.00
19248;DHT22;9758;48.640;8.148;2023-01-08T13:26:56;13.30;56.00
19248;DHT22;9758;48.640;8.148;2023-01-08T13:29:39;13.30;56.00
19248;DHT22;9758;48.640;8.148;2023-01-08T13:32:24;13.30;56.00
19248;DHT22;9758;48.640;8.148;2023-01-08T13:35:13;13.40;56.10
19248;DHT22;9758;48.640;8.148;2023-01-08T13:37:45;13.40;56.10
19248;DHT22;9758;48.640;8.148;2023-01-08T13:40:48;13.40;55.90
19248;DHT22;9758;48.640;8.148;2023-01-08T14:53:28;13.30;55.90
19248;DHT22;9758;48.640;8.148;2023-01-08T14:55:56;13.30;55.70
19248;DHT22;9758;48.640;8.148;2023-01-08T14:58:41;13.30;55.80
19248;DHT22;9758;48.640;8.148;2023-01-08T15:01:25;13.20;55.70
19248;DHT22;9758;48.640;8.148;2023-01-08T15:04:13;13.10;55.70
19248;DHT22;9758;48.640;8.148;2023-01-08T15:07:05;13.10;55.80
19248;DHT22;9758;48.640;8.148;2023-01-08T17:33:11;12.00;56.60
19248;DHT22;9758;48.640;8.148;2023-01-08T17:35:43;12.00;56.60
19248;DHT22;9758;48.640;8.148;2023-01-08T17:41:42;12.00;56.70
19248;DHT22;9758;48.640;8.148;2023-01-08T17:45:07;12.00;56.70
19248;DHT22;9758;48.640;8.148;2023-01-08T19:40:18;12.90;56.60
19248;DHT22;9758;48.640;8.148;2023-01-08T19:42:46;12.90;56.50
19248;DHT22;9758;48.640;8.148;2023-01-08T19:45:30;12.90;56.50
19248;DHT22;9758;48.640;8.148;2023-01-08T19:48:01;12.90;56.50
19248;DHT22;9758;48.640;8.148;2023-01-08T19:50:42;12.90;56.50
19248;DHT22;9758;48.640;8.148;2023-01-08T19:53:22;12.90;56.60
19248;DHT22;9758;48.640;8.148;2023-01-08T19:55:50;12.90;56.60
19248;DHT22;9758;48.640;8.148;2023-01-08T19:58:17;12.90;56.60
19248;DHT22;9758;48.640;8.148;2023-01-08T20:00:45;12.90;56.70
19248;DHT22;9758;48.640;8.148;2023-01-08T20:03:12;12.90;56.70
19248;DHT22;9758;48.640;8.148;2023-01-08T20:05:42;12.90;56.90
19248;DHT22;9758;48.640;8.148;2023-01-08T20:08:09;12.80;56.70
19248;DHT22;9758;48.640;8.148;2023-01-08T20:10:35;12.80;56.90
19248;DHT22;9758;48.640;8.148;2023-01-08T20:13:05;12.80;57.40
19248;DHT22;9758;48.640;8.148;2023-01-08T20:15:32;12.80;57.40
19248;DHT22;9758;48.640;8.148;2023-01-08T20:17:58;12.80;57.10
19248;DHT22;9758;48.640;8.148;2023-01-08T20:20:25;12.80;56.90
19248;DHT22;9758;48.640;8.148;2023-01-08T20:22:52;12.80;57.00
19248;DHT22;9758;48.640;8.148;2023-01-08T20:25:21;12.70;56.90
19248;DHT22;9758;48.640;8.148;2023-01-08T20:27:48;12.70;56.90
19248;DHT22;9758;48.640;8.148;2023-01-08T20:30:18;12.70;56.90
19248;DHT22;9758;48.640;8.148;2023-01-08T20:32:44;12.70;56.80
19248;DHT22;9758;48.640;8.148;2023-01-08T20:35:11;12.70;56.80
19248;DHT22;9758;48.640;8.148;2023-01-08T20:37:38;12.70;57.10
19248;DHT22;9758;48.640;8.148;2023-01-08T20:40:07;12.70;57.00
19248;DHT22;9758;48.640;8.148;2023-01-08T20:42:35;12.60;57.00
19248;DHT22;9758;48.640;8.148;2023-01-08T20:45:03;12.60;57.00
19248;DHT22;9758;48.640;8.148;2023-01-08T20:47:50;12.60;57.20
19248;DHT22;9758;48.640;8.148;2023-01-08T20:50:18;12.50;57.30
19248;DHT22;9758;48.640;8.148;2023-01-08T20:52:58;12.50;57.20
19248;DHT22;9758;48.640;8.148;2023-01-08T20:55:39;12.50;57.20
19248;DHT22;9758;48.640;8.148;2023-01-08T20:58:10;12.50;57.40
19248;DHT22;9758;48.640;8.148;2023-01-08T21:00:37;12.50;57.20
19248;DHT22;9758;48.640;8.148;2023-01-08T21:03:26;12.50;57.50
19248;DHT22;9758;48.640;8.148;2023-01-08T21:05:54;12.40;57.20
19248;DHT22;9758;48.640;8.148;2023-01-08T21:08:23;12.40;57.40
19248;DHT22;9758;48.640;8.148;2023-01-08T21:10:56;12.40;57.20
19248;DHT22;9758;48.640;8.148;2023-01-08T21:13:45;12.40;57.30
19248;DHT22;9758;48.640;8.148;2023-01-08T21:16:22;12.40;57.20
19248;DHT22;9758;48.640;8.148;2023-01-08T21:32:15;12.50;57.40
19248;DHT22;9758;48.640;8.148;2023-01-08T21:34:42;12.40;57.10
19248;DHT22;9758;48.640;8.148;2023-01-08T21:37:10;12.40;57.10
19248;DHT22;9758;48.640;8.148;2023-01-08T21:39:39;12.40;57.10
19248;DHT22;9758;48.640;8.148;2023-01-08T21:42:07;12.40;57.10
19248;DHT22;9758;48.640;8.148;2023-01-08T21:44:52;12.40;57.10
19248;DHT22;9758;48.640;8.148;2023-01-08T21:47:40;12.40;57.10
19248;DHT22;9758;48.640;8.148;2023-01-08T21:50:21;12.40;57.20
19248;DHT22;9758;48.640;8.148;2023-01-08T21:53:02;12.40;57.10
19248;DHT22;9758;48.640;8.148;2023-01-08T21:55:46;12.40;57.30
19248;DHT22;9758;48.640;8.148;2023-01-08T21:58:28;12.30;57.30
19248;DHT22;9758;48.640;8.148;2023-01-08T22:01:08;12.30;57.30
19248;DHT22;9758;48.640;8.148;2023-01-08T22:03:45;12.30;57.40
19248;DHT22;9758;48.640;8.148;2023-01-08T22:06:12;12.30;57.40
19248;DHT22;9758;48.640;8.148;2023-01-08T22:08:41;12.30;57.30
19248;DHT22;9758;48.640;8.148;2023-01-08T22:11:08;12.20;57.40
19248;DHT22;9758;48.640;8.148;2023-01-08T22:13:36;12.20;57.40
19248;DHT22;9758;48.640;8.148;2023-01-08T22:16:08;12.20;57.50
19248;DHT22;9758;48.640;8.148;2023-01-08T22:18:50;12.10;57.40
19248;DHT22;9758;48.640;8.148;2023-01-08T22:21:31;12.20;57.40
19248;DHT22;9758;48.640;8.148;2023-01-08T22:24:00;12.10;57.40
19248;DHT22;9758;48.640;8.148;2023-01-08T22:26:28;12.10;57.40
19248;DHT22;9758;48.640;8.148;2023-01-08T22:28:55;12.10;57.60
19248;DHT22;9758;48.640;8.148;2023-01-08T22:31:22;12.10;57.50
19248;DHT22;9758;48.640;8.148;2023-01-08T22:33:54;12.10;57.50
19248;DHT22;9758;48.640;8.148;2023-01-08T22:36:22;12.00;57.50
19248;DHT22;9758;48.640;8.148;2023-01-08T22:38:49;12.10;57.50
19248;DHT22;9758;48.640;8.148;2023-01-08T22:41:17;12.00;57.50
19248;DHT22;9758;48.640;8.148;2023-01-08T22:43:44;12.00;57.50
19248;DHT22;9758;48.640;8.148;2023-01-08T22:46:13;12.10;57.50
19248;DHT22;9758;48.640;8.148;2023-01-08T22:48:41;12.00;57.50
19248;DHT22;9758;48.640;8.148;2023-01-08T22:51:10;12.10;57.80
19248;DHT22;9758;48.640;8.148;2023-01-08T22:53:37;12.00;57.80
19248;DHT22;9758;48.640;8.148;2023-01-08T22:56:05;12.00;57.70
19248;DHT22;9758;48.640;8.148;2023-01-08T22:58:37;12.00;57.70
19248;DHT22;9758;48.640;8.148;2023-01-08T23:01:09;12.00;57.70
19248;DHT22;9758;48.640;8.148;2023-01-08T23:03:37;12.00;57.70
19248;DHT22;9758;48.640;8.148;2023-01-08T23:06:09;12.00;57.70
19248;DHT22;9758;48.640;8.148;2023-01-08T23:08:37;12.00;57.60
19248;DHT22;9758;48.640;8.148;2023-01-08T23:11:06;12.00;57.70
19248;DHT22;9758;48.640;8.148;2023-01-08T23:13:33;11.90;57.80
19248;DHT22;9758;48.640;8.148;2023-01-08T23:16:01;11.90;57.80
19248;DHT22;9758;48.640;8.148;2023-01-08T23:18:28;11.90;57.70
19248;DHT22;9758;48.640;8.148;2023-01-08T23:21:00;11.90;57.70
19248;DHT22;9758;48.640;8.148;2023-01-08T23:23:37;11.90;57.70
19248;DHT22;9758;48.640;8.148;2023-01-08T23:26:05;11.90;58.10
19248;DHT22;9758;48.640;8.148;2023-01-08T23:28:33;11.90;57.80
19248;DHT22;9758;48.640;8.148;2023-01-08T23:31:16;11.90;57.80
19248;DHT22;9758;48.640;8.148;2023-01-08T23:33:45;11.90;58.00
19248;DHT22;9758;48.640;8.148;2023-01-08T23:36:13;11.90;57.90
19248;DHT22;9758;48.640;8.148;2023-01-08T23:38:44;11.90;57.90
19248;DHT22;9758;48.640;8.148;2023-01-08T23:41:11;11.80;57.80
19248;DHT22;9758;48.640;8.148;2023-01-08T23:43:38;11.80;57.80
19248;DHT22;9758;48.640;8.148;2023-01-08T23:46:05;11.80;58.10
19248;DHT22;9758;48.640;8.148;2023-01-08T23:48:33;11.80;58.70
19248;DHT22;9758;48.640;8.148;2023-01-08T23:51:01;11.70;58.40
19248;DHT22;9758;48.640;8.148;2023-01-08T23:53:28;11.70;58.30
19248;DHT22;9758;48.640;8.148;2023-01-08T23:55:57;11.70;58.40
19248;DHT22;9758;48.640;8.148;2023-01-08T23:58:24;11.70;59.00
